Time;durP1;ratioP1;P1;durP2;ratioP2;P2;SDS_P1;SDS_P2;PMS_P1;PMS_P2;Temp;Humidity;BMP_temperature;BMP_pressure;BME280_temperature;BME280_humidity;BME280_pressure;Samples;Min_cycle;Max_cycle;Signal;HPM_P1;HPM_P2
2023/05/13 00:01:52;;;;;;;;;;;;;;;-142.75;100.00;77115.59;5005348;28;19921;-66
2023/05/13 00:04:17;;;;;;;;;;;;;;;-142.75;100.00;77125.44;5002623;28;19913;-68
2023/05/13 00:06:42;;;;;;;;;;;;;;;-142.75;100.00;77123.47;5005605;28;19956;-68
2023/05/13 00:09:08;;;;;;;;;;;;;;;-142.75;100.00;77127.41;4999897;28;20539;-67
2023/05/13 00:11:34;;;;;;;;;;;;;;;-142.75;100.00;77137.25;4998644;28;20001;-68
2023/05/13 00:13:59;;;;;;;;;;;;;;;-142.75;100.00;77131.34;5004444;28;20430;-65
2023/05/13 00:16:26;;;;;;;;;;;;;;;-142.75;100.00;77125.44;5015356;28;20286;-66
2023/05/13 00:18:51;;;;;;;;;;;;;;;-142.75;100.00;77127.41;5006453;28;19913;-68
2023/05/13 00:21:17;;;;;;;;;;;;;;;-142.75;100.00;77137.25;5006057;28;19921;-68
2023/05/13 00:23:42;;;;;;;;;;;;;;;-142.75;100.00;77143.16;5006465;28;19913;-68
2023/05/13 00:26:07;;;;;;;;;;;;;;;-142.75;100.00;77153.00;5005678;28;19913;-67
2023/05/13 00:28:32;;;;;;;;;;;;;;;-142.75;100.00;77151.03;5004717;28;19913;-69
2023/05/13 00:30:57;;;;;;;;;;;;;;;-142.75;100.00;77156.94;5006039;28;20582;-69
2023/05/13 00:33:22;;;;;;;;;;;;;;;-142.75;100.00;77170.72;5006031;28;19944;-67
2023/05/13 00:35:48;;;;;;;;;;;;;;;-142.75;100.00;77164.81;5005722;28;19914;-68
2023/05/13 00:38:13;;;;;;;;;;;;;;;-142.75;100.00;77172.69;5021098;28;19913;-68
2023/05/13 00:40:38;;;;;;;;;;;;;;;-142.75;100.00;77166.78;5021100;28;19917;-68
2023/05/13 00:43:04;;;;;;;;;;;;;;;-142.75;100.00;77164.81;5006207;28;20004;-68
2023/05/13 00:45:29;;;;;;;;;;;;;;;-142.75;100.00;77168.75;5005655;28;19976;-68
2023/05/13 00:47:55;;;;;;;;;;;;;;;-142.75;100.00;77168.75;5006077;28;19925;-68
2023/05/13 00:50:20;;;;;;;;;;;;;;;-142.75;100.00;77172.69;5007328;28;19922;-69
2023/05/13 00:52:46;;;;;;;;;;;;;;;-142.75;100.00;77190.41;5009786;28;19914;-67
2023/05/13 00:55:11;;;;;;;;;;;;;;;-142.75;100.00;77180.56;5009691;28;19917;-68
2023/05/13 00:57:38;;;;;;;;;;;;;;;-142.75;100.00;77184.50;5009754;28;19920;-68
2023/05/13 01:00:04;;;;;;;;;;;;;;;-142.75;100.00;77192.38;5009794;28;20485;-68
2023/05/13 01:02:36;;;;;;;;;;;;;;;-142.75;100.00;77190.41;5008468;28;19917;-67
2023/05/13 01:05:08;;;;;;;;;;;;;;;-142.75;100.00;77200.25;5008630;28;19920;-68
2023/05/13 01:07:42;;;;;;;;;;;;;;;-142.75;100.00;77208.13;5010660;28;20386;-68
2023/05/13 01:10:17;;;;;;;;;;;;;;;-142.75;100.00;77206.16;5026184;28;20501;-68
2023/05/13 01:12:44;;;;;;;;;;;;;;;-142.75;100.00;77212.06;5010271;28;20000;-69
2023/05/13 01:15:13;;;;;;;;;;;;;;;-142.75;100.00;77206.16;5010269;28;20502;-68
2023/05/13 01:17:59;;;;;;;;;;;;;;;-142.75;100.00;77225.84;5007404;28;19913;-68
2023/05/13 01:20:25;;;;;;;;;;;;;;;-142.75;100.00;77223.88;5009589;28;19917;-67
2023/05/13 01:22:51;;;;;;;;;;;;;;;-142.75;100.00;77231.75;5008124;28;19913;-69
2023/05/13 01:25:16;;;;;;;;;;;;;;;-142.75;100.00;77229.78;5009430;28;19913;-67
2023/05/13 01:27:41;;;;;;;;;;;;;;;-142.75;100.00;77219.94;5009364;28;19913;-68
2023/05/13 01:30:07;;;;;;;;;;;;;;;-142.75;100.00;77216.00;5009596;28;19987;-67
2023/05/13 01:32:33;;;;;;;;;;;;;;;-142.75;100.00;77212.06;5009394;28;19913;-68
2023/05/13 01:34:59;;;;;;;;;;;;;;;-142.75;100.00;77208.13;5006642;28;19987;-68
2023/05/13 01:37:25;;;;;;;;;;;;;;;-142.75;100.00;77212.06;5007083;28;19925;-66
2023/05/13 01:39:50;;;;;;;;;;;;;;;-142.75;100.00;77212.06;5009313;28;19914;-67
2023/05/13 01:42:15;;;;;;;;;;;;;;;-142.75;100.00;77208.13;5024574;28;19913;-67
2023/05/13 01:44:40;;;;;;;;;;;;;;;-142.75;100.00;77208.13;5008573;28;19920;-66
2023/05/13 01:47:06;;;;;;;;;;;;;;;-142.75;100.00;77212.06;5008755;28;20016;-68
2023/05/13 01:49:31;;;;;;;;;;;;;;;-142.75;100.00;77219.94;5008581;28;20295;-67
2023/05/13 01:51:56;;;;;;;;;;;;;;;-142.75;100.00;77212.06;5008693;28;20442;-67
2023/05/13 01:54:22;;;;;;;;;;;;;;;-142.75;100.00;77219.94;5008949;28;19968;-68
2023/05/13 01:56:47;;;;;;;;;;;;;;;-142.75;100.00;77223.88;5007809;28;19967;-66
2023/05/13 01:59:12;;;;;;;;;;;;;;;-142.75;100.00;77243.56;5023048;28;20386;-68
2023/05/13 02:01:39;;;;;;;;;;;;;;;-142.75;100.00;77255.38;5023065;28;19916;-68
2023/05/13 02:04:04;;;;;;;;;;;;;;;-142.75;100.00;77267.19;5008670;28;19913;-68
2023/05/13 02:06:31;;;;;;;;;;;;;;;-142.75;100.00;77263.25;5008309;28;20350;-68
2023/05/13 02:08:56;;;;;;;;;;;;;;;-142.75;100.00;77267.19;5008627;28;19966;-67
2023/05/13 02:11:21;;;;;;;;;;;;;;;-142.75;100.00;77279.00;5007727;28;20317;-69
2023/05/13 02:13:47;;;;;;;;;;;;;;;-142.75;100.00;77279.00;5008794;28;19925;-69
2023/05/13 02:16:16;;;;;;;;;;;;;;;-142.75;100.00;77294.75;5008198;28;19959;-69
2023/05/13 02:18:41;;;;;;;;;;;;;;;-142.75;100.00;77314.44;5008482;28;19909;-68
2023/05/13 02:21:06;;;;;;;;;;;;;;;-142.75;100.00;77322.31;5023003;28;20290;-68
2023/05/13 02:23:32;;;;;;;;;;;;;;;-142.75;100.00;77318.38;5008195;28;19909;-68
2023/05/13 02:25:57;;;;;;;;;;;;;;;-142.75;100.00;77316.41;5007991;28;19909;-69
2023/05/13 02:28:22;;;;;;;;;;;;;;;-142.75;100.00;77332.16;5008459;28;19910;-68
2023/05/13 02:30:47;;;;;;;;;;;;;;;-142.75;100.00;77318.38;5007796;28;19913;-69
2023/05/13 02:33:12;;;;;;;;;;;;;;;-142.75;100.00;77340.03;5008071;28;19936;-69
2023/05/13 02:35:38;;;;;;;;;;;;;;;-142.75;100.00;77353.81;5007632;28;19909;-69
2023/05/13 02:38:03;;;;;;;;;;;;;;;-142.75;100.00;77363.66;5006769;28;19909;-70
2023/05/13 02:40:28;;;;;;;;;;;;;;;-142.75;100.00;77379.41;5008295;28;19964;-67
2023/05/13 02:42:53;;;;;;;;;;;;;;;-142.75;100.00;77393.19;5008494;28;19913;-66
2023/05/13 02:45:19;;;;;;;;;;;;;;;-142.75;100.00;77405.00;5007817;28;20439;-69
2023/05/13 02:47:44;;;;;;;;;;;;;;;-142.75;100.00;77416.81;5007747;28;19920;-68
2023/05/13 02:50:11;;;;;;;;;;;;;;;-142.75;100.00;77408.94;5007692;28;19910;-68
2023/05/13 02:52:37;;;;;;;;;;;;;;;-142.75;100.00;77420.75;5007685;28;19913;-68
2023/05/13 02:55:03;;;;;;;;;;;;;;;-142.75;100.00;77412.88;5007567;28;20378;-69
2023/05/13 02:57:28;;;;;;;;;;;;;;;-142.75;100.00;77416.81;5022585;28;19917;-66
2023/05/13 02:59:53;;;;;;;;;;;;;;;-142.75;100.00;77414.84;5007619;28;19909;-68
2023/05/13 03:02:18;;;;;;;;;;;;;;;-142.75;100.00;77418.78;5007705;28;20035;-69
2023/05/13 03:04:44;;;;;;;;;;;;;;;-142.75;100.00;77434.53;5022028;28;19914;-68
2023/05/13 03:07:09;;;;;;;;;;;;;;;-142.75;100.00;77440.44;5007392;28;19958;-69
2023/05/13 03:09:37;;;;;;;;;;;;;;;-142.75;100.00;77440.44;5007665;28;19940;-70
2023/05/13 03:12:03;;;;;;;;;;;;;;;-142.75;100.00;77452.25;5007978;28;20440;-69
2023/05/13 03:14:28;;;;;;;;;;;;;;;-142.75;100.00;77446.34;5007493;28;19952;-68
2023/05/13 03:16:54;;;;;;;;;;;;;;;-142.75;100.00;77464.09;5007597;28;19913;-70
2023/05/13 03:19:19;;;;;;;;;;;;;;;-142.75;100.00;77468.03;5022459;28;20541;-68
2023/05/13 03:21:44;;;;;;;;;;;;;;;-142.75;100.00;77470.00;5006993;28;19909;-69
2023/05/13 03:24:10;;;;;;;;;;;;;;;-142.75;100.00;77466.03;5022098;28;19916;-67
2023/05/13 03:26:35;;;;;;;;;;;;;;;-142.75;100.00;77491.66;5005344;28;19953;-68
2023/05/13 03:29:00;;;;;;;;;;;;;;;-142.75;100.00;77489.69;5006967;28;19916;-69
2023/05/13 03:31:26;;;;;;;;;;;;;;;-142.75;100.00;77491.66;5022063;28;19959;-66
2023/05/13 03:33:51;;;;;;;;;;;;;;;-142.75;100.00;77499.53;5021877;28;19953;-68
2023/05/13 03:36:16;;;;;;;;;;;;;;;-142.75;100.00;77501.50;5006719;28;19910;-69
2023/05/13 03:38:41;;;;;;;;;;;;;;;-142.75;100.00;77497.56;5006751;28;19909;-70
2023/05/13 03:41:07;;;;;;;;;;;;;;;-142.75;100.00;77513.31;5007113;28;19909;-69
2023/05/13 03:43:32;;;;;;;;;;;;;;;-142.75;100.00;77527.09;5006982;28;19909;-68
2023/05/13 03:45:58;;;;;;;;;;;;;;;-142.75;100.00;77531.03;5006447;28;19909;-68
2023/05/13 03:48:23;;;;;;;;;;;;;;;-142.75;100.00;77542.84;5007039;28;20536;-68
2023/05/13 03:50:48;;;;;;;;;;;;;;;-142.75;100.00;77527.09;5021619;28;19925;-68
2023/05/13 03:53:14;;;;;;;;;;;;;;;-142.75;100.00;77536.94;5006712;28;20100;-67
2023/05/13 03:55:40;;;;;;;;;;;;;;;-142.75;100.00;77527.09;5006307;28;19913;-68
2023/05/13 03:58:13;;;;;;;;;;;;;;;-142.75;100.00;77538.91;5006560;28;20441;-68
2023/05/13 04:00:38;;;;;;;;;;;;;;;-142.75;100.00;77556.63;5006506;28;19913;-68
2023/05/13 04:03:03;;;;;;;;;;;;;;;-142.75;100.00;77556.63;5006408;28;19927;-68
2023/05/13 04:05:28;;;;;;;;;;;;;;;-142.75;100.00;77566.47;5004662;28;19916;-69
2023/05/13 04:07:54;;;;;;;;;;;;;;;-142.75;100.00;77564.50;5006539;28;19920;-66
2023/05/13 04:10:19;;;;;;;;;;;;;;;-142.75;100.00;77562.53;5006754;28;19916;-68
2023/05/13 04:12:44;;;;;;;;;;;;;;;-142.75;100.00;77570.41;5002219;28;19913;-68
2023/05/13 04:15:10;;;;;;;;;;;;;;;-142.75;100.00;77578.28;5020324;28;19953;-67
2023/05/13 04:17:35;;;;;;;;;;;;;;;-142.75;100.00;77572.38;5005953;28;20019;-68
2023/05/13 04:20:00;;;;;;;;;;;;;;;-142.75;100.00;77590.09;5005897;28;19913;-68
2023/05/13 04:22:25;;;;;;;;;;;;;;;-142.75;100.00;77584.19;5006004;28;19921;-66
2023/05/13 04:24:55;;;;;;;;;;;;;;;-142.75;100.00;77586.16;5005389;28;19914;-68
2023/05/13 04:27:20;;;;;;;;;;;;;;;-142.75;100.00;77586.16;5006127;28;19967;-68
2023/05/13 04:29:45;;;;;;;;;;;;;;;-142.75;100.00;77586.16;5005677;28;19917;-66
2023/05/13 04:32:14;;;;;;;;;;;;;;;-142.75;100.00;77572.38;5005890;28;19919;-68
2023/05/13 04:34:39;;;;;;;;;;;;;;;-142.75;100.00;77574.34;5005431;28;19921;-69
2023/05/13 04:37:05;;;;;;;;;;;;;;;-142.75;100.00;77580.25;5020335;28;19987;-69
2023/05/13 04:39:30;;;;;;;;;;;;;;;-142.75;100.00;77574.34;5005998;28;19982;-68
2023/05/13 04:41:55;;;;;;;;;;;;;;;-142.75;100.00;77574.34;5006076;28;19978;-68
2023/05/13 04:44:20;;;;;;;;;;;;;;;-142.75;100.00;77572.38;5006411;28;20413;-69
2023/05/13 04:46:45;;;;;;;;;;;;;;;-142.75;100.00;77570.41;5005232;28;19948;-69
2023/05/13 04:49:10;;;;;;;;;;;;;;;-142.75;100.00;77562.53;5005826;28;19956;-68
2023/05/13 04:51:36;;;;;;;;;;;;;;;-142.75;100.00;77544.81;5005764;28;19920;-69
2023/05/13 04:54:01;;;;;;;;;;;;;;;-142.75;100.00;77540.88;5005628;28;19925;-68
2023/05/13 04:56:26;;;;;;;;;;;;;;;-142.75;100.00;77536.94;5005530;28;20373;-68
2023/05/13 04:58:51;;;;;;;;;;;;;;;-142.75;100.00;77521.19;5005851;28;20438;-69
2023/05/13 05:01:16;;;;;;;;;;;;;;;-142.75;100.00;77515.28;5005893;28;20356;-70
2023/05/13 05:03:42;;;;;;;;;;;;;;;-142.75;100.00;77517.25;5005954;28;21371;-68
2023/05/13 05:06:07;;;;;;;;;;;;;;;-142.75;100.00;77515.28;5005364;28;19921;-69
2023/05/13 05:08:32;;;;;;;;;;;;;;;-142.75;100.00;77485.75;5005796;28;20294;-68
2023/05/13 05:10:58;;;;;;;;;;;;;;;-142.75;100.00;77479.84;5006036;28;20575;-70
2023/05/13 05:13:23;;;;;;;;;;;;;;;-142.75;100.00;77477.88;5021212;28;19914;-68
2023/05/13 05:15:49;;;;;;;;;;;;;;;-142.75;100.00;77462.13;5003814;28;19922;-70
2023/05/13 05:18:14;;;;;;;;;;;;;;;-142.75;100.00;77448.34;5004355;28;19921;-69
2023/05/13 05:20:39;;;;;;;;;;;;;;;-142.75;100.00;77416.81;4997020;28;19921;-69
2023/05/13 05:23:04;;;;;;;;;;;;;;;-142.75;100.00;77408.94;5005171;28;19960;-66
2023/05/13 05:25:30;;;;;;;;;;;;;;;-142.75;100.00;77401.06;5017768;28;19920;-67
2023/05/13 05:27:56;;;;;;;;;;;;;;;-142.75;100.00;77391.22;5005197;28;20530;-68
2023/05/13 05:30:21;;;;;;;;;;;;;;;-142.75;100.00;77379.41;5005345;28;20008;-69
2023/05/13 05:32:46;;;;;;;;;;;;;;;-142.75;100.00;77373.50;5004547;28;20015;-68
2023/05/13 05:35:12;;;;;;;;;;;;;;;-142.75;100.00;77359.72;5003092;28;19926;-66
2023/05/13 05:37:37;;;;;;;;;;;;;;;-142.75;100.00;77338.06;5018465;28;19913;-68
2023/05/13 05:40:03;;;;;;;;;;;;;;;-142.75;100.00;77330.19;5007657;28;19968;-68
2023/05/13 05:42:28;;;;;;;;;;;;;;;-142.75;100.00;77326.25;5009455;28;20287;-68
2023/05/13 05:44:53;;;;;;;;;;;;;;;-142.75;100.00;77306.56;5024112;28;20720;-68
2023/05/13 05:47:18;;;;;;;;;;;;;;;-142.75;100.00;77292.78;5007071;28;19913;-69
2023/05/13 05:49:44;;;;;;;;;;;;;;;-142.75;100.00;77290.81;5008367;28;19917;-69
2023/05/13 05:52:10;;;;;;;;;;;;;;;-142.75;100.00;77271.13;5020051;28;19928;-69
2023/05/13 05:54:35;;;;;;;;;;;;;;;-142.75;100.00;77247.50;5007773;28;19936;-68
2023/05/13 05:57:00;;;;;;;;;;;;;;;-142.75;100.00;77235.69;5001394;28;19914;-69
2023/05/13 05:59:25;;;;;;;;;;;;;;;-142.75;100.00;77231.75;5008693;28;20485;-69
2023/05/13 06:01:50;;;;;;;;;;;;;;;-142.75;100.00;77216.00;5008628;28;19921;-70
2023/05/13 06:04:16;;;;;;;;;;;;;;;-142.75;100.00;77219.94;5023686;28;19914;-67
2023/05/13 06:06:41;;;;;;;;;;;;;;;-142.75;100.00;77221.91;5007894;28;19959;-69
2023/05/13 06:09:07;;;;;;;;;;;;;;;-142.75;100.00;77194.34;5022254;28;19920;-69
2023/05/13 06:11:32;;;;;;;;;;;;;;;-142.75;100.00;77184.50;5008357;28;19921;-69
2023/05/13 06:13:57;;;;;;;;;;;;;;;-142.75;100.00;77180.56;5007816;28;19924;-68
2023/05/13 06:16:22;;;;;;;;;;;;;;;-142.75;100.00;77149.06;5019704;28;20502;-70
2023/05/13 06:18:48;;;;;;;;;;;;;;;-142.75;100.00;77129.38;5007721;28;19952;-69
2023/05/13 06:21:13;;;;;;;;;;;;;;;-142.75;100.00;77115.59;5023405;28;20019;-69
2023/05/13 06:23:38;;;;;;;;;;;;;;;-142.75;100.00;77072.28;5008228;28;19920;-69
2023/05/13 06:26:04;;;;;;;;;;;;;;;-142.75;100.00;77060.47;5007183;28;20016;-71
2023/05/13 06:28:29;;;;;;;;;;;;;;;-142.75;100.00;77062.44;5012454;28;19917;-70
2023/05/13 06:30:54;;;;;;;;;;;;;;;-142.75;100.00;77054.56;5006608;28;19929;-70
2023/05/13 06:33:19;;;;;;;;;;;;;;;-142.75;100.00;77030.94;5006627;28;19963;-69
2023/05/13 06:35:48;;;;;;;;;;;;;;;-142.75;100.00;76987.63;5005503;28;19914;-69
2023/05/13 06:38:16;;;;;;;;;;;;;;;-142.75;100.00;76954.16;5007964;28;21324;-68
2023/05/13 06:40:41;;;;;;;;;;;;;;;-142.75;100.00;76950.22;5019931;28;19913;-72
2023/05/13 06:43:07;;;;;;;;;;;;;;;-142.75;100.00;76967.94;5011638;28;19936;-70
2023/05/13 06:45:32;;;;;;;;;;;;;;;-142.75;100.00;76967.94;5008366;28;19928;-71
2023/05/13 06:47:57;;;;;;;;;;;;;;;-142.75;100.00;76960.06;5008560;28;19917;-69
2023/05/13 06:50:22;;;;;;;;;;;;;;;-142.75;100.00;76973.84;5008682;28;19913;-70
2023/05/13 06:52:48;;;;;;;;;;;;;;;-142.75;100.00;76956.13;5022398;28;19920;-70
2023/05/13 06:55:13;;;;;;;;;;;;;;;-142.75;100.00;76956.13;5007584;28;19925;-69
2023/05/13 06:57:38;;;;;;;;;;;;;;;-142.75;100.00;76916.75;5003181;28;19914;-70
2023/05/13 07:00:04;;;;;;;;;;;;;;;-142.75;100.00;76912.81;5020004;28;19920;-69
2023/05/13 07:02:29;;;;;;;;;;;;;;;-142.75;100.00;76916.75;5008240;28;19924;-69
2023/05/13 07:04:55;;;;;;;;;;;;;;;-142.75;100.00;76914.78;5020469;28;19917;-67
2023/05/13 07:07:20;;;;;;;;;;;;;;;-142.75;100.00;76893.13;5021694;28;20545;-70
2023/05/13 07:09:45;;;;;;;;;;;;;;;-142.75;100.00;76895.09;5020488;28;19913;-70
2023/05/13 07:12:10;;;;;;;;;;;;;;;-142.75;100.00;76845.88;5019996;28;20560;-70
2023/05/13 07:14:36;;;;;;;;;;;;;;;-142.75;100.00;76843.91;5007362;28;19952;-68
2023/05/13 07:17:02;;;;;;;;;;;;;;;-142.75;100.00;76820.28;5007761;28;19921;-67
2023/05/13 07:19:27;;;;;;;;;;;;;;;-142.75;100.00;76849.81;5019689;28;19913;-67
2023/05/13 07:21:52;;;;;;;;;;;;;;;-142.75;100.00;76796.69;5006763;28;19936;-68
2023/05/13 07:24:18;;;;;;;;;;;;;;;-142.75;100.00;76784.88;5020627;28;19913;-69
2023/05/13 07:26:43;;;;;;;;;;;;;;;-142.75;100.00;76796.69;5007657;28;20210;-69
2023/05/13 07:29:08;;;;;;;;;;;;;;;-142.75;100.00;76747.47;5003858;28;19913;-69
2023/05/13 07:31:33;;;;;;;;;;;;;;;-142.75;100.00;76739.59;5001921;28;19913;-68
2023/05/13 07:33:59;;;;;;;;;;;;;;;-142.75;100.00;76719.91;5006344;28;19917;-68
2023/05/13 07:36:24;;;;;;;;;;;;;;;-142.75;100.00;76714.00;5007897;28;19948;-70
2023/05/13 07:38:49;;;;;;;;;;;;;;;-142.75;100.00;76696.28;5007398;28;19913;-70
2023/05/13 07:41:14;;;;;;;;;;;;;;;-142.75;100.00;76680.53;5003967;28;19925;-69
2023/05/13 07:43:40;;;;;;;;;;;;;;;-142.75;100.00;76649.03;5008189;28;19961;-68
2023/05/13 07:46:05;;;;;;;;;;;;;;;-142.75;100.00;76656.91;5007676;28;19913;-69
2023/05/13 07:48:30;;;;;;;;;;;;;;;-142.75;99.04;76631.31;5007331;28;20331;-68
2023/05/13 07:50:56;;;;;;;;;;;;;;;-142.75;97.93;76621.47;5001262;28;20379;-67
2023/05/13 07:53:22;;;;;;;;;;;;;;;-142.75;94.41;76613.59;5006828;28;20477;-69
2023/05/13 07:55:47;;;;;;;;;;;;;;;-142.75;94.20;76617.53;5005674;28;19913;-70
2023/05/13 07:58:12;;;;;;;;;;;;;;;-142.75;93.98;76591.94;5006303;28;20090;-70
2023/05/13 08:00:38;;;;;;;;;;;;;;;-142.75;96.28;76562.41;5005736;28;19913;-71
2023/05/13 08:03:03;;;;;;;;;;;;;;;-142.75;92.44;76556.50;5025781;23;19928;-66
2023/05/13 08:05:28;;;;;;;;;;;;;;;-142.75;90.35;76540.75;5010145;28;20375;-68
2023/05/13 08:07:53;;;;;;;;;;;;;;;-142.75;89.48;76519.13;5004762;28;20039;-66
2023/05/13 08:10:18;;;;;;;;;;;;;;;-142.75;89.30;76540.75;5007279;28;19925;-66
2023/05/13 08:12:49;;;;;;;;;;;;;;;-142.75;90.58;76513.22;5007437;28;20397;-65
2023/05/13 08:15:15;;;;;;;;;;;;;;;-142.75;91.49;76473.84;5005530;28;19970;-65
2023/05/13 08:17:41;;;;;;;;;;;;;;;-142.75;93.38;76467.94;5005348;28;19913;-65
2023/05/13 08:20:06;;;;;;;;;;;;;;;-142.75;91.16;76456.13;5006042;28;19913;-65
2023/05/13 08:22:31;;;;;;;;;;;;;;;-142.75;89.50;76432.50;5005987;28;19924;-66
2023/05/13 08:24:59;;;;;;;;;;;;;;;-142.75;87.68;76434.47;5005499;28;19913;-65
2023/05/13 08:27:25;;;;;;;;;;;;;;;-142.75;89.27;76432.50;5005595;28;20310;-64
2023/05/13 08:29:50;;;;;;;;;;;;;;;-142.75;86.83;76424.63;5005944;28;19920;-66
2023/05/13 08:32:15;;;;;;;;;;;;;;;-142.75;87.53;76432.50;5005574;28;19921;-65
2023/05/13 08:34:40;;;;;;;;;;;;;;;-142.75;87.59;76422.66;5005854;28;19921;-66
2023/05/13 08:37:06;;;;;;;;;;;;;;;-142.75;86.47;76424.63;5005591;28;19920;-66
2023/05/13 08:39:31;;;;;;;;;;;;;;;-142.75;85.06;76391.16;5005872;28;19953;-66
2023/05/13 08:41:56;;;;;;;;;;;;;;;-142.75;85.39;76399.03;5006033;28;19921;-65
2023/05/13 08:44:27;;;;;;;;;;;;;;;-142.75;85.59;76393.13;5005038;28;19920;-67
2023/05/13 08:46:59;;;;;;;;;;;;;;;-142.75;84.12;76349.81;5005702;28;20004;-66
2023/05/13 08:49:24;;;;;;;;;;;;;;;-142.75;82.75;76353.78;5006127;28;19913;-66
2023/05/13 08:51:50;;;;;;;;;;;;;;;-142.75;83.39;76341.97;5005939;28;20371;-66
2023/05/13 08:54:16;;;;;;;;;;;;;;;-142.75;82.82;76345.91;5005756;28;19917;-66
2023/05/13 08:56:41;;;;;;;;;;;;;;;-142.75;85.43;76312.44;5005706;28;19971;-66
2023/05/13 08:59:06;;;;;;;;;;;;;;;-142.75;85.11;76318.34;5005901;28;20287;-66
2023/05/13 09:01:32;;;;;;;;;;;;;;;-142.75;82.72;76286.84;5004307;28;20015;-66
2023/05/13 09:04:00;;;;;;;;;;;;;;;-142.75;83.37;76271.09;5005594;28;19913;-66
2023/05/13 09:06:26;;;;;;;;;;;;;;;-142.75;82.82;76269.13;5005775;28;19971;-67
2023/05/13 09:08:51;;;;;;;;;;;;;;;-142.75;82.12;76241.56;5006841;28;20012;-67
2023/05/13 09:11:17;;;;;;;;;;;;;;;-142.75;80.55;76278.97;5008286;28;19921;-67
2023/05/13 09:13:43;;;;;;;;;;;;;;;-142.75;80.63;76259.28;5011009;28;20509;-67
2023/05/13 09:16:08;;;;;;;;;;;;;;;-142.75;80.96;76245.50;5009425;28;19913;-67
2023/05/13 09:18:34;;;;;;;;;;;;;;;-142.75;81.71;76215.97;5010898;28;19967;-67
2023/05/13 09:21:18;;;;;;;;;;;;;;;-142.75;79.01;76196.31;5010525;28;20457;-66
2023/05/13 09:23:44;;;;;;;;;;;;;;;-142.75;79.01;76200.25;5009355;28;20351;-67
2023/05/13 09:26:24;;;;;;;;;;;;;;;-142.75;79.66;76168.75;5009891;28;20072;-67
2023/05/13 09:29:10;;;;;;;;;;;;;;;-142.75;78.90;76160.88;5010930;28;19913;-67
2023/05/13 09:31:35;;;;;;;;;;;;;;;-142.75;78.77;76178.59;5010489;28;20012;-67
2023/05/13 09:34:00;;;;;;;;;;;;;;;-142.75;79.83;76137.25;5010366;28;20070;-68
2023/05/13 09:36:26;;;;;;;;;;;;;;;-142.75;77.16;76162.84;5010480;28;19914;-66
2023/05/13 09:38:51;;;;;;;;;;;;;;;-142.75;77.39;76164.81;5010656;28;19924;-68
2023/05/13 09:41:18;;;;;;;;;;;;;;;-142.75;77.98;76137.25;5010750;28;20318;-67
2023/05/13 09:43:43;;;;;;;;;;;;;;;-142.75;77.69;76160.88;5010300;28;19913;-67
2023/05/13 09:46:09;;;;;;;;;;;;;;;-142.75;78.56;76156.94;5010234;28;19924;-67
2023/05/13 09:48:36;;;;;;;;;;;;;;;-142.75;77.13;76107.72;5010384;28;20617;-67
2023/05/13 09:51:02;;;;;;;;;;;;;;;-142.75;79.54;76109.69;5010209;28;19921;-67
2023/05/13 09:53:27;;;;;;;;;;;;;;;-142.75;77.51;76156.94;5009916;28;20432;-67
2023/05/13 09:55:54;;;;;;;;;;;;;;;-142.75;76.78;76172.69;5010093;28;19914;-67
2023/05/13 09:58:19;;;;;;;;;;;;;;;-142.75;78.68;76151.03;5010193;28;20314;-67
2023/05/13 10:00:46;;;;;;;;;;;;;;;-142.75;77.13;76172.69;5008669;28;19913;-68
2023/05/13 10:03:11;;;;;;;;;;;;;;;-142.75;79.31;76119.53;5009851;28;19913;-68
2023/05/13 10:05:37;;;;;;;;;;;;;;;-142.75;77.67;76111.66;5009694;28;19913;-68
2023/05/13 10:08:03;;;;;;;;;;;;;;;-142.75;75.94;76113.63;5008537;28;19967;-68
2023/05/13 10:10:29;;;;;;;;;;;;;;;-142.75;74.57;76058.53;5009988;28;20508;-68
2023/05/13 10:12:55;;;;;;;;;;;;;;;-142.75;75.79;76046.72;5009508;28;19921;-66
2023/05/13 10:15:21;;;;;;;;;;;;;;;-142.75;72.78;76056.56;5009837;28;19924;-68
2023/05/13 10:17:47;;;;;;;;;;;;;;;-142.75;72.67;76034.91;5009863;28;19925;-67
2023/05/13 10:20:13;;;;;;;;;;;;;;;-142.75;71.48;76062.47;5008521;28;20000;-67
2023/05/13 10:22:38;;;;;;;;;;;;;;;-142.75;73.75;76090.00;5008779;28;19920;-68
2023/05/13 10:25:04;;;;;;;;;;;;;;;-142.75;74.35;76046.72;5008191;28;19913;-68
2023/05/13 10:27:31;;;;;;;;;;;;;;;-142.75;73.62;76029.00;5008084;28;19913;-68
2023/05/13 10:29:57;;;;;;;;;;;;;;;-142.75;72.49;76017.19;5006895;28;19921;-68
2023/05/13 10:32:24;;;;;;;;;;;;;;;-142.75;73.16;76036.88;5009574;28;19921;-66
2023/05/13 10:34:52;;;;;;;;;;;;;;;-142.75;71.26;76007.34;5008179;28;19925;-68
2023/05/13 10:37:38;;;;;;;;;;;;;;;-142.75;72.12;76013.25;5009506;28;19913;-68
2023/05/13 10:40:23;;;;;;;;;;;;;;;-142.75;72.29;76005.38;5000578;28;19950;-66
2023/05/13 10:42:53;;;;;;;;;;;;;;;-142.75;74.58;75983.72;5009277;28;20299;-67
2023/05/13 10:45:18;;;;;;;;;;;;;;;-142.75;74.14;75952.25;5005276;28;19928;-66
2023/05/13 10:47:48;;;;;;;;;;;;;;;-142.75;74.09;75964.03;5007058;28;19913;-66
2023/05/13 10:50:23;;;;;;;;;;;;;;;-142.75;75.21;75973.88;5009066;28;19921;-67
2023/05/13 10:52:48;;;;;;;;;;;;;;;-142.75;73.57;75975.84;5008005;28;19936;-66
2023/05/13 10:55:15;;;;;;;;;;;;;;;-142.75;74.45;75975.84;5008911;28;20615;-67
2023/05/13 10:57:40;;;;;;;;;;;;;;;-142.75;73.66;75971.91;5007706;28;19913;-66
2023/05/13 11:00:15;;;;;;;;;;;;;;;-142.75;75.04;75958.16;5008776;28;20460;-66
2023/05/13 11:02:40;;;;;;;;;;;;;;;-142.75;73.06;75946.34;5008733;28;19982;-66
2023/05/13 11:05:06;;;;;;;;;;;;;;;-142.75;74.84;75926.66;5008607;28;19996;-66
2023/05/13 11:07:36;;;;;;;;;;;;;;;-142.75;70.82;75914.84;5007186;28;19917;-66
2023/05/13 11:10:01;;;;;;;;;;;;;;;-142.75;71.84;75897.13;5008374;28;19952;-67
2023/05/13 11:12:26;;;;;;;;;;;;;;;-142.75;70.79;75887.28;5023847;28;19945;-67
2023/05/13 11:14:54;;;;;;;;;;;;;;;-142.75;72.53;75905.00;5008526;28;19922;-67
2023/05/13 11:17:19;;;;;;;;;;;;;;;-142.75;72.36;75863.66;5008782;28;19923;-67
2023/05/13 11:19:45;;;;;;;;;;;;;;;-142.75;71.91;75842.03;5007121;28;19914;-67
2023/05/13 11:22:15;;;;;;;;;;;;;;;-142.75;70.98;75881.38;5007097;28;19924;-67
2023/05/13 11:24:45;;;;;;;;;;;;;;;-142.75;69.01;75906.97;5007451;28;20012;-67
2023/05/13 11:27:11;;;;;;;;;;;;;;;-142.75;69.36;75881.38;5007246;28;20302;-66
2023/05/13 11:29:37;;;;;;;;;;;;;;;-142.75;65.77;75847.94;5008385;28;20000;-66
2023/05/13 11:32:04;;;;;;;;;;;;;;;-142.75;66.01;75845.97;5008468;28;20000;-66
2023/05/13 11:34:30;;;;;;;;;;;;;;;-142.75;66.82;75826.28;5006923;28;19971;-66
2023/05/13 11:36:56;;;;;;;;;;;;;;;-142.75;67.59;75893.19;5006690;28;19917;-67
2023/05/13 11:39:25;;;;;;;;;;;;;;;-142.75;68.91;75840.06;5005612;28;20404;-67
2023/05/13 11:41:50;;;;;;;;;;;;;;;-142.75;68.75;75812.50;5006903;28;20393;-66
2023/05/13 11:44:20;;;;;;;;;;;;;;;-142.75;67.68;75814.47;5006896;28;19913;-67
2023/05/13 11:46:55;;;;;;;;;;;;;;;-142.75;69.58;75820.38;5006668;28;19921;-67
2023/05/13 11:49:36;;;;;;;;;;;;;;;-142.75;68.99;75796.75;5006896;28;19914;-66
2023/05/13 11:52:02;;;;;;;;;;;;;;;-142.75;66.98;75782.97;5006604;28;20526;-66
2023/05/13 11:54:27;;;;;;;;;;;;;;;-142.75;66.88;75804.63;5007321;28;19924;-66
2023/05/13 11:56:53;;;;;;;;;;;;;;;-142.75;69.21;75788.88;5022985;28;19913;-65
2023/05/13 11:59:18;;;;;;;;;;;;;;;-142.75;68.73;75800.69;5006647;28;19940;-66
2023/05/13 12:01:44;;;;;;;;;;;;;;;-142.75;67.16;75786.91;5008024;28;19971;-66
2023/05/13 12:04:09;;;;;;;;;;;;;;;-142.75;69.78;75822.34;5008218;28;19920;-66
2023/05/13 12:06:41;;;;;;;;;;;;;;;-142.75;66.74;75782.97;5007816;28;20430;-66
2023/05/13 12:09:07;;;;;;;;;;;;;;;-142.75;68.59;75796.75;5006816;28;19920;-66
2023/05/13 12:11:33;;;;;;;;;;;;;;;-142.75;66.66;75771.16;5007594;28;19913;-67
2023/05/13 12:13:58;;;;;;;;;;;;;;;-142.75;67.47;75802.66;5007384;28;20409;-66
2023/05/13 12:16:24;;;;;;;;;;;;;;;-142.75;70.00;75779.03;5007332;28;19913;-66